sensor_id;sensor_type;location;lat;lon;timestamp;P1;durP1;ratioP1;P2;durP2;ratioP2
37791;SDS011;29527;55.766;37.570;2023-04-03T00:00:59;13.60;;;7.40;;
37791;SDS011;29527;55.766;37.570;2023-04-03T00:03:25;10.88;;;7.22;;
37791;SDS011;29527;55.766;37.570;2023-04-03T00:05:51;10.25;;;7.45;;
37791;SDS011;29527;55.766;37.570;2023-04-03T00:08:16;13.50;;;8.07;;
37791;SDS011;29527;55.766;37.570;2023-04-03T00:10:42;11.70;;;8.30;;
37791;SDS011;29527;55.766;37.570;2023-04-03T00:13:07;9.98;;;7.63;;
37791;SDS011;29527;55.766;37.570;2023-04-03T00:15:34;11.77;;;7.85;;
37791;SDS011;29527;55.766;37.570;2023-04-03T00:18:00;13.75;;;8.07;;
37791;SDS011;29527;55.766;37.570;2023-04-03T00:20:26;13.73;;;7.57;;
37791;SDS011;29527;55.766;37.570;2023-04-03T00:22:52;10.45;;;8.10;;
37791;SDS011;29527;55.766;37.570;2023-04-03T00:25:19;12.35;;;8.32;;
37791;SDS011;29527;55.766;37.570;2023-04-03T00:27:44;10.10;;;7.90;;
37791;SDS011;29527;55.766;37.570;2023-04-03T00:30:11;15.15;;;7.85;;
37791;SDS011;29527;55.766;37.570;2023-04-03T00:32:39;10.52;;;8.27;;
37791;SDS011;29527;55.766;37.570;2023-04-03T00:35:05;12.70;;;8.98;;
37791;SDS011;29527;55.766;37.570;2023-04-03T00:37:31;13.57;;;8.48;;
37791;SDS011;29527;55.766;37.570;2023-04-03T00:39:57;12.88;;;8.23;;
37791;SDS011;29527;55.766;37.570;2023-04-03T00:42:22;13.52;;;9.13;;
37791;SDS011;29527;55.766;37.570;2023-04-03T00:47:15;11.85;;;8.05;;
37791;SDS011;29527;55.766;37.570;2023-04-03T00:49:42;17.98;;;8.85;;
37791;SDS011;29527;55.766;37.570;2023-04-03T00:52:10;12.70;;;8.32;;
37791;SDS011;29527;55.766;37.570;2023-04-03T00:54:39;14.20;;;8.38;;
37791;SDS011;29527;55.766;37.570;2023-04-03T00:57:07;10.52;;;7.57;;
37791;SDS011;29527;55.766;37.570;2023-04-03T00:59:34;13.75;;;8.50;;
37791;SDS011;29527;55.766;37.570;2023-04-03T01:02:03;11.35;;;8.75;;
37791;SDS011;29527;55.766;37.570;2023-04-03T01:04:36;11.48;;;8.18;;
37791;SDS011;29527;55.766;37.570;2023-04-03T01:07:08;17.13;;;8.38;;
37791;SDS011;29527;55.766;37.570;2023-04-03T01:09:36;12.25;;;8.40;;
37791;SDS011;29527;55.766;37.570;2023-04-03T01:12:16;12.38;;;8.48;;
37791;SDS011;29527;55.766;37.570;2023-04-03T01:14:47;12.40;;;7.82;;
37791;SDS011;29527;55.766;37.570;2023-04-03T01:17:24;13.50;;;8.02;;
37791;SDS011;29527;55.766;37.570;2023-04-03T01:19:57;12.93;;;8.60;;
37791;SDS011;29527;55.766;37.570;2023-04-03T01:22:30;12.57;;;7.70;;
37791;SDS011;29527;55.766;37.570;2023-04-03T01:25:06;10.55;;;8.20;;
37791;SDS011;29527;55.766;37.570;2023-04-03T01:27:31;14.23;;;8.55;;
37791;SDS011;29527;55.766;37.570;2023-04-03T01:29:57;16.50;;;8.48;;
37791;SDS011;29527;55.766;37.570;2023-04-03T01:32:23;12.98;;;8.93;;
37791;SDS011;29527;55.766;37.570;2023-04-03T01:34:49;14.65;;;9.02;;
37791;SDS011;29527;55.766;37.570;2023-04-03T01:37:14;14.15;;;9.10;;
37791;SDS011;29527;55.766;37.570;2023-04-03T01:39:39;11.00;;;7.97;;
37791;SDS011;29527;55.766;37.570;2023-04-03T01:42:05;11.27;;;8.50;;
37791;SDS011;29527;55.766;37.570;2023-04-03T01:44:31;13.20;;;8.45;;
37791;SDS011;29527;55.766;37.570;2023-04-03T01:46:56;15.45;;;9.00;;
37791;SDS011;29527;55.766;37.570;2023-04-03T01:49:21;13.32;;;9.10;;
37791;SDS011;29527;55.766;37.570;2023-04-03T01:51:47;15.68;;;9.07;;
37791;SDS011;29527;55.766;37.570;2023-04-03T01:54:13;13.30;;;9.13;;
37791;SDS011;29527;55.766;37.570;2023-04-03T01:56:38;13.90;;;8.93;;
37791;SDS011;29527;55.766;37.570;2023-04-03T01:59:04;14.10;;;9.05;;
37791;SDS011;29527;55.766;37.570;2023-04-03T02:01:29;12.60;;;9.38;;
37791;SDS011;29527;55.766;37.570;2023-04-03T02:03:55;12.85;;;9.30;;
37791;SDS011;29527;55.766;37.570;2023-04-03T02:06:21;15.52;;;9.43;;
37791;SDS011;29527;55.766;37.570;2023-04-03T02:08:46;14.35;;;9.43;;
37791;SDS011;29527;55.766;37.570;2023-04-03T02:11:11;13.25;;;9.40;;
37791;SDS011;29527;55.766;37.570;2023-04-03T02:13:37;13.40;;;9.50;;
37791;SDS011;29527;55.766;37.570;2023-04-03T02:16:06;16.08;;;8.93;;
37791;SDS011;29527;55.766;37.570;2023-04-03T02:18:33;12.65;;;9.10;;
37791;SDS011;29527;55.766;37.570;2023-04-03T02:20:58;13.68;;;9.15;;
37791;SDS011;29527;55.766;37.570;2023-04-03T02:23:24;15.23;;;9.20;;
37791;SDS011;29527;55.766;37.570;2023-04-03T02:25:49;16.65;;;9.57;;
37791;SDS011;29527;55.766;37.570;2023-04-03T02:28:15;15.88;;;8.90;;
37791;SDS011;29527;55.766;37.570;2023-04-03T02:30:40;14.77;;;9.40;;
37791;SDS011;29527;55.766;37.570;2023-04-03T02:33:06;12.00;;;9.27;;
37791;SDS011;29527;55.766;37.570;2023-04-03T02:35:31;15.45;;;9.38;;
37791;SDS011;29527;55.766;37.570;2023-04-03T02:37:56;16.33;;;9.20;;
37791;SDS011;29527;55.766;37.570;2023-04-03T02:40:22;14.02;;;9.90;;
37791;SDS011;29527;55.766;37.570;2023-04-03T02:42:47;15.02;;;9.98;;
37791;SDS011;29527;55.766;37.570;2023-04-03T02:45:13;16.15;;;9.52;;
37791;SDS011;29527;55.766;37.570;2023-04-03T02:47:38;16.98;;;9.70;;
37791;SDS011;29527;55.766;37.570;2023-04-03T02:50:04;15.32;;;10.00;;
37791;SDS011;29527;55.766;37.570;2023-04-03T02:52:30;16.48;;;9.52;;
37791;SDS011;29527;55.766;37.570;2023-04-03T02:54:56;16.40;;;10.05;;
37791;SDS011;29527;55.766;37.570;2023-04-03T02:57:22;16.60;;;9.80;;
37791;SDS011;29527;55.766;37.570;2023-04-03T02:59:47;13.73;;;10.00;;
37791;SDS011;29527;55.766;37.570;2023-04-03T03:02:13;17.05;;;10.95;;
37791;SDS011;29527;55.766;37.570;2023-04-03T03:04:38;18.45;;;11.30;;
37791;SDS011;29527;55.766;37.570;2023-04-03T03:07:04;17.02;;;11.15;;
37791;SDS011;29527;55.766;37.570;2023-04-03T03:09:29;17.67;;;11.48;;
37791;SDS011;29527;55.766;37.570;2023-04-03T03:11:55;18.13;;;11.45;;
37791;SDS011;29527;55.766;37.570;2023-04-03T03:14:22;18.80;;;11.90;;
37791;SDS011;29527;55.766;37.570;2023-04-03T03:16:48;18.00;;;12.50;;
37791;SDS011;29527;55.766;37.570;2023-04-03T03:19:13;19.33;;;11.75;;
37791;SDS011;29527;55.766;37.570;2023-04-03T03:21:38;17.55;;;11.90;;
37791;SDS011;29527;55.766;37.570;2023-04-03T03:24:04;21.25;;;12.65;;
37791;SDS011;29527;55.766;37.570;2023-04-03T03:26:30;20.10;;;12.65;;
37791;SDS011;29527;55.766;37.570;2023-04-03T03:28:55;19.77;;;12.50;;
37791;SDS011;29527;55.766;37.570;2023-04-03T03:31:21;22.80;;;12.55;;
37791;SDS011;29527;55.766;37.570;2023-04-03T03:33:46;21.85;;;13.20;;
37791;SDS011;29527;55.766;37.570;2023-04-03T03:36:11;24.80;;;12.93;;
37791;SDS011;29527;55.766;37.570;2023-04-03T03:38:37;21.73;;;12.45;;
37791;SDS011;29527;55.766;37.570;2023-04-03T03:41:03;26.50;;;13.35;;
37791;SDS011;29527;55.766;37.570;2023-04-03T03:43:28;20.50;;;12.23;;
37791;SDS011;29527;55.766;37.570;2023-04-03T03:45:54;20.48;;;12.82;;
37791;SDS011;29527;55.766;37.570;2023-04-03T03:48:20;21.08;;;12.70;;
37791;SDS011;29527;55.766;37.570;2023-04-03T03:50:46;16.83;;;12.02;;
37791;SDS011;29527;55.766;37.570;2023-04-03T03:53:12;19.27;;;11.27;;
37791;SDS011;29527;55.766;37.570;2023-04-03T03:55:38;18.75;;;11.60;;
37791;SDS011;29527;55.766;37.570;2023-04-03T03:58:03;23.90;;;12.38;;
37791;SDS011;29527;55.766;37.570;2023-04-03T04:00:29;21.40;;;12.50;;
37791;SDS011;29527;55.766;37.570;2023-04-03T04:02:55;18.55;;;12.00;;
37791;SDS011;29527;55.766;37.570;2023-04-03T04:05:21;22.23;;;12.07;;
37791;SDS011;29527;55.766;37.570;2023-04-03T04:07:47;17.02;;;11.80;;
37791;SDS011;29527;55.766;37.570;2023-04-03T04:10:12;21.63;;;11.85;;
37791;SDS011;29527;55.766;37.570;2023-04-03T04:12:38;20.75;;;11.35;;
37791;SDS011;29527;55.766;37.570;2023-04-03T04:15:04;16.95;;;11.48;;
37791;SDS011;29527;55.766;37.570;2023-04-03T04:17:30;20.15;;;12.32;;
37791;SDS011;29527;55.766;37.570;2023-04-03T04:19:56;20.80;;;13.52;;
37791;SDS011;29527;55.766;37.570;2023-04-03T04:22:21;20.38;;;11.77;;
37791;SDS011;29527;55.766;37.570;2023-04-03T04:24:47;23.33;;;11.82;;
37791;SDS011;29527;55.766;37.570;2023-04-03T04:27:12;18.45;;;12.63;;
37791;SDS011;29527;55.766;37.570;2023-04-03T04:29:37;20.83;;;12.68;;
37791;SDS011;29527;55.766;37.570;2023-04-03T04:32:03;22.17;;;13.25;;
37791;SDS011;29527;55.766;37.570;2023-04-03T04:34:29;23.40;;;13.15;;
37791;SDS011;29527;55.766;37.570;2023-04-03T04:36:55;20.92;;;12.88;;
37791;SDS011;29527;55.766;37.570;2023-04-03T04:39:20;25.67;;;13.73;;
37791;SDS011;29527;55.766;37.570;2023-04-03T04:41:46;28.00;;;13.20;;
37791;SDS011;29527;55.766;37.570;2023-04-03T04:44:11;22.70;;;12.82;;
37791;SDS011;29527;55.766;37.570;2023-04-03T04:46:37;26.70;;;13.70;;
37791;SDS011;29527;55.766;37.570;2023-04-03T04:49:02;25.17;;;13.43;;
37791;SDS011;29527;55.766;37.570;2023-04-03T04:51:28;32.08;;;13.98;;
37791;SDS011;29527;55.766;37.570;2023-04-03T04:53:53;26.48;;;13.02;;
37791;SDS011;29527;55.766;37.570;2023-04-03T04:56:19;26.63;;;12.80;;
37791;SDS011;29527;55.766;37.570;2023-04-03T04:58:44;19.88;;;12.05;;
37791;SDS011;29527;55.766;37.570;2023-04-03T05:01:10;28.98;;;13.02;;
37791;SDS011;29527;55.766;37.570;2023-04-03T05:03:36;26.38;;;13.90;;
37791;SDS011;29527;55.766;37.570;2023-04-03T05:06:02;27.65;;;12.82;;
37791;SDS011;29527;55.766;37.570;2023-04-03T05:08:28;25.98;;;12.88;;
37791;SDS011;29527;55.766;37.570;2023-04-03T05:10:53;26.30;;;13.48;;
37791;SDS011;29527;55.766;37.570;2023-04-03T05:13:19;22.75;;;12.25;;
37791;SDS011;29527;55.766;37.570;2023-04-03T05:15:45;27.77;;;12.65;;
37791;SDS011;29527;55.766;37.570;2023-04-03T05:18:11;27.40;;;12.50;;
37791;SDS011;29527;55.766;37.570;2023-04-03T05:20:36;23.63;;;12.70;;
37791;SDS011;29527;55.766;37.570;2023-04-03T05:23:02;25.70;;;12.45;;
37791;SDS011;29527;55.766;37.570;2023-04-03T05:25:28;25.92;;;12.43;;
37791;SDS011;29527;55.766;37.570;2023-04-03T05:27:53;21.92;;;12.23;;
37791;SDS011;29527;55.766;37.570;2023-04-03T05:30:19;23.38;;;12.13;;
37791;SDS011;29527;55.766;37.570;2023-04-03T05:32:44;26.20;;;11.35;;
37791;SDS011;29527;55.766;37.570;2023-04-03T05:35:10;25.83;;;12.18;;
37791;SDS011;29527;55.766;37.570;2023-04-03T05:37:36;28.30;;;12.18;;
37791;SDS011;29527;55.766;37.570;2023-04-03T05:40:03;22.05;;;12.00;;
37791;SDS011;29527;55.766;37.570;2023-04-03T05:42:29;19.55;;;11.88;;
37791;SDS011;29527;55.766;37.570;2023-04-03T05:44:55;25.15;;;11.98;;
37791;SDS011;29527;55.766;37.570;2023-04-03T05:47:20;21.10;;;10.82;;
37791;SDS011;29527;55.766;37.570;2023-04-03T05:49:46;28.75;;;13.00;;
37791;SDS011;29527;55.766;37.570;2023-04-03T05:54:50;21.05;;;12.27;;
37791;SDS011;29527;55.766;37.570;2023-04-03T05:57:16;27.35;;;12.75;;
37791;SDS011;29527;55.766;37.570;2023-04-03T05:59:45;23.90;;;11.98;;
37791;SDS011;29527;55.766;37.570;2023-04-03T06:02:12;23.83;;;12.82;;
37791;SDS011;29527;55.766;37.570;2023-04-03T06:04:40;23.13;;;11.98;;
37791;SDS011;29527;55.766;37.570;2023-04-03T06:07:05;24.25;;;12.63;;
37791;SDS011;29527;55.766;37.570;2023-04-03T06:09:32;23.52;;;12.30;;
37791;SDS011;29527;55.766;37.570;2023-04-03T06:11:57;21.33;;;11.85;;
37791;SDS011;29527;55.766;37.570;2023-04-03T06:14:24;19.77;;;11.90;;
37791;SDS011;29527;55.766;37.570;2023-04-03T06:16:50;22.98;;;12.48;;
37791;SDS011;29527;55.766;37.570;2023-04-03T06:19:16;25.05;;;12.48;;
37791;SDS011;29527;55.766;37.570;2023-04-03T06:21:42;22.25;;;12.70;;
37791;SDS011;29527;55.766;37.570;2023-04-03T06:24:08;22.77;;;13.05;;
37791;SDS011;29527;55.766;37.570;2023-04-03T06:26:37;26.00;;;13.30;;
37791;SDS011;29527;55.766;37.570;2023-04-03T06:29:03;31.73;;;13.70;;
37791;SDS011;29527;55.766;37.570;2023-04-03T06:31:29;27.95;;;13.57;;
37791;SDS011;29527;55.766;37.570;2023-04-03T06:33:55;21.17;;;13.70;;
37791;SDS011;29527;55.766;37.570;2023-04-03T06:36:21;30.25;;;14.68;;
37791;SDS011;29527;55.766;37.570;2023-04-03T06:38:47;29.33;;;13.70;;
37791;SDS011;29527;55.766;37.570;2023-04-03T06:41:13;25.38;;;13.25;;
37791;SDS011;29527;55.766;37.570;2023-04-03T06:43:39;22.90;;;13.93;;
37791;SDS011;29527;55.766;37.570;2023-04-03T06:46:05;30.00;;;13.52;;
37791;SDS011;29527;55.766;37.570;2023-04-03T06:48:30;24.17;;;13.15;;
37791;SDS011;29527;55.766;37.570;2023-04-03T06:50:56;29.67;;;13.35;;
37791;SDS011;29527;55.766;37.570;2023-04-03T06:53:22;26.48;;;13.45;;
37791;SDS011;29527;55.766;37.570;2023-04-03T06:55:47;29.33;;;13.35;;
37791;SDS011;29527;55.766;37.570;2023-04-03T06:58:13;27.15;;;13.95;;
37791;SDS011;29527;55.766;37.570;2023-04-03T07:00:40;23.35;;;13.25;;
37791;SDS011;29527;55.766;37.570;2023-04-03T07:03:06;24.55;;;13.68;;
37791;SDS011;29527;55.766;37.570;2023-04-03T07:05:31;27.55;;;13.65;;
37791;SDS011;29527;55.766;37.570;2023-04-03T07:07:57;26.73;;;13.68;;
37791;SDS011;29527;55.766;37.570;2023-04-03T07:10:22;27.58;;;13.57;;
37791;SDS011;29527;55.766;37.570;2023-04-03T07:12:48;34.65;;;14.60;;
37791;SDS011;29527;55.766;37.570;2023-04-03T07:15:13;24.65;;;13.38;;
37791;SDS011;29527;55.766;37.570;2023-04-03T07:17:39;23.58;;;13.77;;
37791;SDS011;29527;55.766;37.570;2023-04-03T07:20:05;27.15;;;13.98;;
37791;SDS011;29527;55.766;37.570;2023-04-03T07:22:32;26.52;;;14.80;;
37791;SDS011;29527;55.766;37.570;2023-04-03T07:24:57;26.05;;;14.75;;
37791;SDS011;29527;55.766;37.570;2023-04-03T07:27:24;26.73;;;13.57;;
37791;SDS011;29527;55.766;37.570;2023-04-03T07:29:50;28.65;;;13.73;;
37791;SDS011;29527;55.766;37.570;2023-04-03T07:32:16;27.90;;;14.60;;
37791;SDS011;29527;55.766;37.570;2023-04-03T07:34:42;28.38;;;14.55;;
37791;SDS011;29527;55.766;37.570;2023-04-03T07:37:08;26.20;;;13.95;;
37791;SDS011;29527;55.766;37.570;2023-04-03T07:39:34;21.50;;;13.07;;
37791;SDS011;29527;55.766;37.570;2023-04-03T07:42:00;25.23;;;13.55;;
37791;SDS011;29527;55.766;37.570;2023-04-03T07:44:26;25.50;;;13.98;;
37791;SDS011;29527;55.766;37.570;2023-04-03T07:46:53;20.48;;;12.80;;
37791;SDS011;29527;55.766;37.570;2023-04-03T07:49:20;24.70;;;13.50;;
37791;SDS011;29527;55.766;37.570;2023-04-03T07:51:48;21.48;;;12.68;;
37791;SDS011;29527;55.766;37.570;2023-04-03T07:54:14;21.73;;;12.77;;
37791;SDS011;29527;55.766;37.570;2023-04-03T07:56:40;25.83;;;12.80;;
37791;SDS011;29527;55.766;37.570;2023-04-03T07:59:07;27.13;;;13.25;;
37791;SDS011;29527;55.766;37.570;2023-04-03T08:01:33;26.25;;;13.63;;
37791;SDS011;29527;55.766;37.570;2023-04-03T08:03:59;26.92;;;13.63;;
37791;SDS011;29527;55.766;37.570;2023-04-03T08:06:25;21.23;;;13.52;;
37791;SDS011;29527;55.766;37.570;2023-04-03T08:08:51;31.33;;;14.27;;
37791;SDS011;29527;55.766;37.570;2023-04-03T08:11:17;25.80;;;12.40;;
37791;SDS011;29527;55.766;37.570;2023-04-03T08:13:43;27.80;;;12.98;;
37791;SDS011;29527;55.766;37.570;2023-04-03T08:16:13;33.47;;;14.15;;
37791;SDS011;29527;55.766;37.570;2023-04-03T08:18:42;23.50;;;13.30;;
37791;SDS011;29527;55.766;37.570;2023-04-03T08:21:11;26.05;;;13.82;;
37791;SDS011;29527;55.766;37.570;2023-04-03T08:23:37;23.75;;;13.75;;
37791;SDS011;29527;55.766;37.570;2023-04-03T08:26:08;25.95;;;13.60;;
37791;SDS011;29527;55.766;37.570;2023-04-03T08:28:39;28.03;;;13.83;;
37791;SDS011;29527;55.766;37.570;2023-04-03T08:31:06;26.33;;;14.95;;
37791;SDS011;29527;55.766;37.570;2023-04-03T08:33:34;29.60;;;15.85;;
37791;SDS011;29527;55.766;37.570;2023-04-03T08:36:02;27.88;;;15.57;;
37791;SDS011;29527;55.766;37.570;2023-04-03T08:38:29;35.22;;;16.23;;
37791;SDS011;29527;55.766;37.570;2023-04-03T08:41:11;32.50;;;16.15;;
37791;SDS011;29527;55.766;37.570;2023-04-03T08:46:52;28.85;;;16.75;;
37791;SDS011;29527;55.766;37.570;2023-04-03T08:49:25;28.13;;;16.98;;
37791;SDS011;29527;55.766;37.570;2023-04-03T08:51:53;30.60;;;16.27;;
37791;SDS011;29527;55.766;37.570;2023-04-03T08:54:26;26.17;;;16.77;;
37791;SDS011;29527;55.766;37.570;2023-04-03T08:56:55;35.53;;;16.90;;
37791;SDS011;29527;55.766;37.570;2023-04-03T08:59:27;34.53;;;16.83;;
37791;SDS011;29527;55.766;37.570;2023-04-03T09:01:57;36.45;;;18.13;;
37791;SDS011;29527;55.766;37.570;2023-04-03T09:04:25;34.28;;;16.90;;
37791;SDS011;29527;55.766;37.570;2023-04-03T09:06:54;35.20;;;16.83;;
37791;SDS011;29527;55.766;37.570;2023-04-03T09:09:33;39.17;;;17.60;;
37791;SDS011;29527;55.766;37.570;2023-04-03T09:12:21;36.75;;;17.38;;
37791;SDS011;29527;55.766;37.570;2023-04-03T09:17:42;42.00;;;17.50;;
37791;SDS011;29527;55.766;37.570;2023-04-03T09:26:02;36.10;;;15.90;;
37791;SDS011;29527;55.766;37.570;2023-04-03T09:28:34;33.33;;;15.77;;
37791;SDS011;29527;55.766;37.570;2023-04-03T09:31:05;35.38;;;17.35;;
37791;SDS011;29527;55.766;37.570;2023-04-03T09:33:50;30.98;;;17.60;;
37791;SDS011;29527;55.766;37.570;2023-04-03T09:36:36;38.20;;;17.15;;
37791;SDS011;29527;55.766;37.570;2023-04-03T09:39:17;34.78;;;14.77;;
37791;SDS011;29527;55.766;37.570;2023-04-03T09:44:23;29.55;;;13.85;;
37791;SDS011;29527;55.766;37.570;2023-04-03T09:46:50;30.58;;;15.32;;
37791;SDS011;29527;55.766;37.570;2023-04-03T09:49:16;29.33;;;14.50;;
37791;SDS011;29527;55.766;37.570;2023-04-03T09:51:42;29.50;;;14.38;;
37791;SDS011;29527;55.766;37.570;2023-04-03T09:54:25;29.42;;;13.90;;
37791;SDS011;29527;55.766;37.570;2023-04-03T09:56:55;29.90;;;14.15;;
37791;SDS011;29527;55.766;37.570;2023-04-03T09:59:26;27.75;;;14.73;;
37791;SDS011;29527;55.766;37.570;2023-04-03T10:04:56;26.50;;;13.73;;
37791;SDS011;29527;55.766;37.570;2023-04-03T10:07:26;31.20;;;14.05;;
37791;SDS011;29527;55.766;37.570;2023-04-03T10:10:20;29.17;;;14.07;;
37791;SDS011;29527;55.766;37.570;2023-04-03T10:15:55;27.23;;;13.32;;
37791;SDS011;29527;55.766;37.570;2023-04-03T10:18:40;23.40;;;12.63;;
37791;SDS011;29527;55.766;37.570;2023-04-03T10:21:12;25.38;;;14.02;;
37791;SDS011;29527;55.766;37.570;2023-04-03T10:23:51;27.80;;;14.27;;
37791;SDS011;29527;55.766;37.570;2023-04-03T10:26:52;22.02;;;13.45;;
37791;SDS011;29527;55.766;37.570;2023-04-03T10:32:12;27.42;;;14.32;;
37791;SDS011;29527;55.766;37.570;2023-04-03T10:35:08;26.83;;;14.27;;
37791;SDS011;29527;55.766;37.570;2023-04-03T10:37:59;32.47;;;14.68;;
37791;SDS011;29527;55.766;37.570;2023-04-03T10:41:22;26.13;;;15.30;;
37791;SDS011;29527;55.766;37.570;2023-04-03T10:46:28;28.67;;;13.55;;
37791;SDS011;29527;55.766;37.570;2023-04-03T10:51:47;32.95;;;14.18;;
37791;SDS011;29527;55.766;37.570;2023-04-03T10:54:24;27.77;;;14.60;;
37791;SDS011;29527;55.766;37.570;2023-04-03T10:56:56;26.75;;;13.15;;
37791;SDS011;29527;55.766;37.570;2023-04-03T10:59:35;26.23;;;12.70;;
37791;SDS011;29527;55.766;37.570;2023-04-03T11:02:36;21.70;;;10.77;;
37791;SDS011;29527;55.766;37.570;2023-04-03T11:05:01;24.73;;;10.30;;
37791;SDS011;29527;55.766;37.570;2023-04-03T11:07:37;17.05;;;10.23;;
37791;SDS011;29527;55.766;37.570;2023-04-03T11:10:10;21.88;;;11.73;;
37791;SDS011;29527;55.766;37.570;2023-04-03T11:13:24;25.27;;;11.10;;
37791;SDS011;29527;55.766;37.570;2023-04-03T11:15:37;24.85;;;11.07;;
37791;SDS011;29527;55.766;37.570;2023-04-03T11:18:04;29.08;;;11.57;;
37791;SDS011;29527;55.766;37.570;2023-04-03T11:20:35;19.40;;;10.95;;
37791;SDS011;29527;55.766;37.570;2023-04-03T11:23:04;21.65;;;11.50;;
37791;SDS011;29527;55.766;37.570;2023-04-03T11:25:39;24.38;;;11.73;;
37791;SDS011;29527;55.766;37.570;2023-04-03T11:28:14;29.42;;;12.40;;
37791;SDS011;29527;55.766;37.570;2023-04-03T11:33:17;27.00;;;10.88;;
37791;SDS011;29527;55.766;37.570;2023-04-03T11:35:58;22.35;;;11.98;;
37791;SDS011;29527;55.766;37.570;2023-04-03T11:38:32;21.70;;;10.95;;
37791;SDS011;29527;55.766;37.570;2023-04-03T11:41:04;23.92;;;11.57;;
37791;SDS011;29527;55.766;37.570;2023-04-03T11:43:33;29.20;;;11.90;;
37791;SDS011;29527;55.766;37.570;2023-04-03T11:46:06;26.27;;;12.40;;
37791;SDS011;29527;55.766;37.570;2023-04-03T11:53:43;27.85;;;11.95;;
37791;SDS011;29527;55.766;37.570;2023-04-03T11:56:28;20.10;;;12.02;;
37791;SDS011;29527;55.766;37.570;2023-04-03T11:59:15;22.23;;;11.90;;
37791;SDS011;29527;55.766;37.570;2023-04-03T12:04:17;19.90;;;13.40;;
37791;SDS011;29527;55.766;37.570;2023-04-03T12:09:22;33.60;;;14.32;;
37791;SDS011;29527;55.766;37.570;2023-04-03T12:11:52;25.02;;;12.98;;
37791;SDS011;29527;55.766;37.570;2023-04-03T12:14:21;24.27;;;13.73;;
37791;SDS011;29527;55.766;37.570;2023-04-03T12:16:50;21.70;;;11.75;;
37791;SDS011;29527;55.766;37.570;2023-04-03T12:19:37;20.15;;;12.02;;
37791;SDS011;29527;55.766;37.570;2023-04-03T12:22:15;20.77;;;11.93;;
37791;SDS011;29527;55.766;37.570;2023-04-03T12:24:45;23.80;;;13.02;;
37791;SDS011;29527;55.766;37.570;2023-04-03T12:37:54;24.98;;;11.63;;
37791;SDS011;29527;55.766;37.570;2023-04-03T12:46:26;12.15;;;8.77;;
37791;SDS011;29527;55.766;37.570;2023-04-03T12:49:04;17.98;;;9.57;;
37791;SDS011;29527;55.766;37.570;2023-04-03T12:51:44;15.68;;;7.85;;
37791;SDS011;29527;55.766;37.570;2023-04-03T12:54:29;14.73;;;6.47;;
37791;SDS011;29527;55.766;37.570;2023-04-03T12:57:09;11.88;;;5.97;;
37791;SDS011;29527;55.766;37.570;2023-04-03T12:59:35;13.85;;;5.57;;
37791;SDS011;29527;55.766;37.570;2023-04-03T13:02:07;16.75;;;5.75;;
37791;SDS011;29527;55.766;37.570;2023-04-03T13:04:42;13.43;;;6.10;;
37791;SDS011;29527;55.766;37.570;2023-04-03T13:07:18;15.73;;;6.18;;
37791;SDS011;29527;55.766;37.570;2023-04-03T13:10:14;15.57;;;6.80;;
37791;SDS011;29527;55.766;37.570;2023-04-03T13:12:47;19.10;;;7.30;;
37791;SDS011;29527;55.766;37.570;2023-04-03T13:15:21;14.45;;;6.82;;
37791;SDS011;29527;55.766;37.570;2023-04-03T13:17:51;22.77;;;7.30;;
37791;SDS011;29527;55.766;37.570;2023-04-03T13:20:19;14.73;;;7.28;;
37791;SDS011;29527;55.766;37.570;2023-04-03T13:22:49;17.92;;;7.22;;
37791;SDS011;29527;55.766;37.570;2023-04-03T13:25:19;15.20;;;7.70;;
37791;SDS011;29527;55.766;37.570;2023-04-03T13:27:47;15.55;;;6.75;;
37791;SDS011;29527;55.766;37.570;2023-04-03T13:30:19;15.18;;;7.25;;
37791;SDS011;29527;55.766;37.570;2023-04-03T13:32:49;13.60;;;7.65;;
37791;SDS011;29527;55.766;37.570;2023-04-03T13:35:29;15.93;;;7.03;;
37791;SDS011;29527;55.766;37.570;2023-04-03T13:38:19;18.48;;;7.68;;
37791;SDS011;29527;55.766;37.570;2023-04-03T13:40:52;15.13;;;7.82;;
37791;SDS011;29527;55.766;37.570;2023-04-03T13:43:26;15.35;;;7.50;;
37791;SDS011;29527;55.766;37.570;2023-04-03T13:46:38;21.65;;;7.75;;
37791;SDS011;29527;55.766;37.570;2023-04-03T13:48:42;12.60;;;8.32;;
37791;SDS011;29527;55.766;37.570;2023-04-03T13:53:47;16.25;;;8.20;;
37791;SDS011;29527;55.766;37.570;2023-04-03T13:58:52;15.57;;;9.00;;
37791;SDS011;29527;55.766;37.570;2023-04-03T14:01:49;24.75;;;8.90;;
37791;SDS011;29527;55.766;37.570;2023-04-03T14:04:21;22.73;;;10.23;;
37791;SDS011;29527;55.766;37.570;2023-04-03T14:06:52;13.88;;;9.23;;
37791;SDS011;29527;55.766;37.570;2023-04-03T14:09:19;16.83;;;10.70;;
37791;SDS011;29527;55.766;37.570;2023-04-03T14:11:46;26.50;;;10.90;;
37791;SDS011;29527;55.766;37.570;2023-04-03T14:14:32;21.90;;;10.10;;
37791;SDS011;29527;55.766;37.570;2023-04-03T14:17:00;21.70;;;9.80;;
37791;SDS011;29527;55.766;37.570;2023-04-03T14:19:29;20.88;;;10.05;;
37791;SDS011;29527;55.766;37.570;2023-04-03T14:22:00;24.42;;;10.52;;
37791;SDS011;29527;55.766;37.570;2023-04-03T14:24:31;19.88;;;9.65;;
37791;SDS011;29527;55.766;37.570;2023-04-03T14:26:57;13.43;;;8.88;;
37791;SDS011;29527;55.766;37.570;2023-04-03T14:29:22;18.27;;;9.10;;
37791;SDS011;29527;55.766;37.570;2023-04-03T14:31:49;17.00;;;8.93;;
37791;SDS011;29527;55.766;37.570;2023-04-03T14:34:15;12.00;;;8.27;;
37791;SDS011;29527;55.766;37.570;2023-04-03T14:36:42;14.10;;;8.05;;
37791;SDS011;29527;55.766;37.570;2023-04-03T14:39:10;14.00;;;8.13;;
37791;SDS011;29527;55.766;37.570;2023-04-03T14:41:41;16.05;;;8.23;;
37791;SDS011;29527;55.766;37.570;2023-04-03T14:44:07;12.40;;;8.43;;
37791;SDS011;29527;55.766;37.570;2023-04-03T14:46:34;14.60;;;9.18;;
37791;SDS011;29527;55.766;37.570;2023-04-03T14:49:03;19.00;;;7.72;;
37791;SDS011;29527;55.766;37.570;2023-04-03T14:51:37;17.33;;;8.03;;
37791;SDS011;29527;55.766;37.570;2023-04-03T14:54:03;16.55;;;8.45;;
37791;SDS011;29527;55.766;37.570;2023-04-03T14:56:31;14.18;;;8.63;;
37791;SDS011;29527;55.766;37.570;2023-04-03T14:58:58;15.80;;;8.68;;
37791;SDS011;29527;55.766;37.570;2023-04-03T15:01:25;18.88;;;8.73;;
37791;SDS011;29527;55.766;37.570;2023-04-03T15:03:51;12.68;;;9.05;;
37791;SDS011;29527;55.766;37.570;2023-04-03T15:06:17;15.23;;;9.10;;
37791;SDS011;29527;55.766;37.570;2023-04-03T15:08:43;14.20;;;8.98;;
37791;SDS011;29527;55.766;37.570;2023-04-03T15:11:12;20.17;;;9.25;;
37791;SDS011;29527;55.766;37.570;2023-04-03T15:13:38;17.83;;;9.23;;
37791;SDS011;29527;55.766;37.570;2023-04-03T15:16:04;17.13;;;9.20;;
37791;SDS011;29527;55.766;37.570;2023-04-03T15:18:32;18.50;;;9.38;;
37791;SDS011;29527;55.766;37.570;2023-04-03T15:21:02;16.85;;;9.43;;
37791;SDS011;29527;55.766;37.570;2023-04-03T15:23:28;15.55;;;8.93;;
37791;SDS011;29527;55.766;37.570;2023-04-03T15:25:55;13.80;;;9.55;;
37791;SDS011;29527;55.766;37.570;2023-04-03T15:30:57;15.65;;;9.88;;
37791;SDS011;29527;55.766;37.570;2023-04-03T15:33:23;14.88;;;10.10;;
37791;SDS011;29527;55.766;37.570;2023-04-03T15:35:50;14.10;;;9.13;;